createdAt,value
2019-05-13T00:00:14.167Z,72.00
2019-05-13T00:02:43.756Z,72.10
2019-05-13T00:05:14.437Z,72.20
2019-05-13T00:07:43.585Z,72.50
2019-05-13T00:10:11.254Z,72.60
2019-05-13T00:12:38.880Z,72.60
2019-05-13T00:15:06.439Z,72.80
2019-05-13T00:17:34.609Z,72.90
2019-05-13T00:20:04.014Z,72.90
2019-05-13T00:22:33.890Z,73.20
2019-05-13T00:25:03.788Z,74.00
2019-05-13T00:27:30.143Z,73.30
2019-05-13T00:30:01.038Z,73.40
2019-05-13T00:32:29.064Z,73.50
2019-05-13T00:34:56.533Z,73.40
2019-05-13T00:37:24.573Z,73.50
2019-05-13T00:39:54.283Z,73.70
2019-05-13T00:42:24.560Z,73.80
2019-05-13T00:44:53.221Z,73.80
2019-05-13T00:47:20.872Z,73.80
2019-05-13T00:49:48.598Z,74.00
2019-05-13T00:52:16.504Z,73.90
2019-05-13T00:54:44.232Z,74.10
2019-05-13T00:57:13.342Z,74.10
2019-05-13T00:59:44.309Z,74.20
2019-05-13T01:02:13.838Z,74.10
2019-05-13T01:04:44.064Z,74.40
2019-05-13T01:07:25.329Z,74.30
2019-05-13T01:09:40.833Z,74.30
2019-05-13T01:12:08.327Z,74.70
2019-05-13T01:14:36.249Z,74.60
2019-05-13T01:17:04.207Z,74.60
2019-05-13T01:19:34.004Z,74.60
2019-05-13T01:22:03.425Z,74.60
2019-05-13T01:24:33.741Z,74.60
2019-05-13T01:27:03.557Z,74.80
2019-05-13T01:29:30.640Z,74.90
2019-05-13T01:31:59.015Z,75.10
2019-05-13T01:34:26.561Z,75.30
2019-05-13T01:36:54.070Z,75.40
2019-05-13T01:39:24.093Z,75.40
2019-05-13T01:41:53.557Z,75.30
2019-05-13T01:44:21.283Z,75.50
2019-05-13T01:46:48.687Z,75.60
2019-05-13T01:49:18.587Z,75.70
2019-05-13T01:51:46.164Z,75.70
2019-05-13T01:54:14.193Z,75.70
2019-05-13T01:56:43.969Z,75.80
2019-05-13T01:59:11.560Z,75.90
2019-05-13T02:01:39.177Z,75.80
2019-05-13T02:04:06.783Z,76.00
2019-05-13T02:06:34.194Z,76.10
2019-05-13T02:09:03.801Z,76.10
2019-05-13T02:11:33.991Z,76.20
2019-05-13T02:14:01.505Z,76.20
2019-05-13T02:16:29.845Z,76.40
2019-05-13T02:18:57.183Z,76.50
2019-05-13T02:21:25.710Z,76.30
2019-05-13T02:23:53.721Z,76.40
2019-05-13T02:26:23.906Z,76.50
2019-05-13T02:28:53.979Z,76.60
2019-05-13T02:31:31.997Z,76.40
2019-05-13T02:33:53.175Z,76.40
2019-05-13T02:36:22.824Z,76.50
2019-05-13T02:38:53.336Z,76.50
2019-05-13T02:41:22.768Z,76.10
2019-05-13T02:43:52.538Z,76.50
2019-05-13T02:46:22.531Z,76.50
2019-05-13T02:48:52.531Z,76.80
2019-05-13T02:51:23.159Z,76.90
2019-05-13T02:53:52.326Z,76.90
2019-05-13T02:56:22.673Z,76.90
2019-05-13T02:58:52.439Z,77.00
2019-05-13T03:01:18.852Z,77.30
2019-05-13T03:03:46.307Z,77.70
2019-05-13T03:06:14.117Z,77.30
2019-05-13T03:08:49.576Z,78.20
2019-05-13T03:11:12.781Z,77.30
2019-05-13T03:13:42.581Z,77.30
2019-05-13T03:16:15.795Z,77.40
2019-05-13T03:18:43.997Z,77.60
2019-05-13T03:21:12.942Z,77.50
2019-05-13T03:23:44.176Z,77.60
2019-05-13T03:26:12.994Z,77.50
2019-05-13T03:28:43.170Z,77.60
2019-05-13T03:31:15.886Z,77.50
2019-05-13T03:33:45.242Z,77.50
2019-05-13T03:36:16.505Z,78.10
2019-05-13T03:38:59.541Z,77.10
2019-05-13T03:41:12.439Z,77.30
2019-05-13T03:43:43.327Z,77.30
2019-05-13T03:46:12.383Z,77.20
2019-05-13T03:48:42.796Z,77.20
2019-05-13T03:51:13.256Z,77.20
2019-05-13T03:53:42.968Z,77.30
2019-05-13T03:56:12.858Z,77.40
2019-05-13T03:58:43.314Z,77.30
2019-05-13T04:01:12.948Z,77.40
2019-05-13T04:03:43.911Z,77.30
2019-05-13T04:06:13.479Z,77.30
2019-05-13T04:08:43.468Z,77.50
2019-05-13T04:11:12.680Z,77.50
2019-05-13T04:13:42.873Z,77.60
2019-05-13T04:16:12.845Z,77.70
2019-05-13T04:18:42.606Z,77.20
2019-05-13T04:21:13.303Z,77.80
2019-05-13T04:23:42.631Z,77.80
2019-05-13T04:26:14.875Z,78.00
2019-05-13T04:28:44.520Z,78.10
2019-05-13T04:31:14.589Z,78.10
2019-05-13T04:33:46.831Z,78.10
2019-05-13T04:36:17.509Z,78.60
2019-05-13T04:38:46.541Z,78.40
2019-05-13T04:41:15.721Z,78.60
2019-05-13T04:43:44.524Z,78.70
2019-05-13T04:46:15.768Z,78.90
2019-05-13T04:48:48.151Z,79.10
2019-05-13T04:51:22.344Z,79.20
2019-05-13T04:53:53.649Z,79.30
2019-05-13T04:56:22.351Z,79.50
2019-05-13T04:58:52.755Z,79.70
2019-05-13T05:02:04.985Z,80.10
2019-05-13T05:04:48.711Z,80.30
2019-05-13T05:07:48.667Z,81.30
2019-05-13T05:10:42.850Z,80.90
2019-05-13T05:13:48.314Z,80.90
2019-05-13T05:16:28.682Z,81.10
2019-05-13T05:19:33.540Z,81.50
2019-05-13T05:22:34.183Z,81.70
2019-05-13T05:25:22.664Z,81.90
2019-05-13T05:28:08.460Z,82.20
2019-05-13T05:31:05.575Z,82.10
2019-05-13T05:34:06.746Z,82.40
2019-05-13T05:36:58.597Z,82.60
2019-05-13T05:39:26.892Z,82.80
2019-05-13T05:41:57.445Z,83.00
2019-05-13T05:44:27.520Z,83.10
2019-05-13T05:46:57.501Z,83.40
2019-05-13T05:49:25.709Z,83.50
2019-05-13T05:52:01.668Z,83.80
2019-05-13T05:54:32.084Z,84.00
2019-05-13T05:57:03.471Z,83.90
2019-05-13T05:59:32.095Z,84.00
2019-05-13T06:02:02.035Z,84.30
2019-05-13T06:04:32.284Z,84.20
2019-05-13T06:07:03.175Z,84.90
2019-05-13T06:09:32.229Z,84.20
2019-05-13T06:12:01.726Z,84.20
2019-05-13T06:14:32.546Z,84.40
2019-05-13T06:17:01.830Z,84.40
2019-05-13T06:19:31.603Z,84.40
2019-05-13T06:22:01.890Z,84.50
2019-05-13T06:24:31.239Z,84.60
2019-05-13T06:27:01.507Z,85.30
2019-05-13T06:29:31.650Z,84.80
2019-05-13T06:32:15.350Z,84.70
2019-05-13T06:34:32.825Z,84.70
2019-05-13T06:37:01.792Z,84.70
2019-05-13T06:39:31.633Z,84.40
2019-05-13T06:42:02.350Z,84.00
2019-05-13T06:44:31.422Z,83.80
2019-05-13T06:47:02.540Z,83.90
2019-05-13T06:49:32.198Z,84.30
2019-05-13T06:52:01.643Z,83.40
2019-05-13T06:54:32.540Z,83.20
2019-05-13T06:57:04.534Z,83.10
2019-05-13T06:59:31.788Z,84.10
2019-05-13T07:02:02.238Z,83.50
2019-05-13T07:04:32.690Z,83.50
2019-05-13T07:07:12.436Z,83.40
2019-05-13T07:09:32.318Z,82.80
2019-05-13T07:12:03.251Z,82.70
2019-05-13T07:14:32.347Z,83.40
2019-05-13T07:17:01.935Z,82.70
2019-05-13T07:19:32.316Z,82.70
2019-05-13T07:22:02.700Z,83.00
2019-05-13T07:24:32.326Z,82.90
2019-05-13T07:27:01.905Z,82.60
2019-05-13T07:29:32.552Z,82.60
2019-05-13T07:32:03.608Z,82.10
2019-05-13T07:34:33.688Z,82.10
2019-05-13T07:37:02.296Z,81.80
2019-05-13T07:39:32.670Z,81.40
2019-05-13T07:42:05.078Z,81.50
2019-05-13T07:44:32.407Z,81.30
2019-05-13T07:47:03.398Z,80.90
2019-05-13T07:49:31.919Z,80.90
2019-05-13T07:52:01.861Z,81.00
2019-05-13T07:54:32.591Z,81.00
2019-05-13T07:57:01.889Z,80.90
2019-05-13T07:59:31.845Z,80.50
2019-05-13T08:02:02.284Z,80.50
2019-05-13T08:04:33.049Z,80.70
2019-05-13T08:07:01.910Z,80.90
2019-05-13T08:09:31.842Z,81.00
2019-05-13T08:12:08.728Z,80.80
2019-05-13T08:14:28.852Z,80.70
2019-05-13T08:16:56.577Z,80.80
2019-05-13T08:19:32.568Z,80.80
2019-05-13T08:22:02.209Z,81.30
2019-05-13T08:24:33.850Z,80.40
2019-05-13T08:27:02.458Z,80.70
2019-05-13T08:29:32.394Z,80.50
2019-05-13T08:32:02.421Z,80.20
2019-05-13T08:34:32.605Z,80.00
2019-05-13T08:37:02.338Z,79.70
2019-05-13T08:39:35.651Z,80.10
2019-05-13T08:42:11.746Z,79.40
2019-05-13T08:44:29.153Z,79.40
2019-05-13T08:46:59.114Z,79.40
2019-05-13T08:49:27.871Z,79.40
2019-05-13T08:51:55.720Z,79.40
2019-05-13T08:54:23.530Z,79.20
2019-05-13T08:56:54.163Z,79.20
2019-05-13T08:59:22.487Z,78.70
2019-05-13T09:01:51.988Z,77.90
2019-05-13T09:04:22.104Z,77.80
2019-05-13T09:06:51.775Z,77.50
2019-05-13T09:09:21.866Z,76.70
2019-05-13T09:11:51.563Z,75.80
2019-05-13T09:14:21.753Z,75.50
2019-05-13T09:16:49.328Z,75.50
2019-05-13T09:19:17.018Z,75.70
2019-05-13T09:21:44.898Z,75.60
2019-05-13T09:24:21.723Z,75.50
2019-05-13T09:26:42.327Z,75.40
2019-05-13T09:29:11.881Z,75.20
2019-05-13T09:31:41.592Z,74.90
2019-05-13T09:34:11.892Z,74.20
2019-05-13T09:36:41.555Z,73.40
2019-05-13T09:39:08.381Z,72.40
2019-05-13T09:41:40.818Z,72.40
2019-05-13T09:44:05.386Z,72.50
2019-05-13T09:46:33.210Z,73.00
2019-05-13T09:49:12.847Z,72.10
2019-05-13T09:51:32.357Z,71.80
2019-05-13T09:54:01.293Z,70.10
2019-05-13T09:56:31.963Z,70.20
2019-05-13T09:59:01.719Z,70.10
2019-05-13T10:01:32.074Z,69.60
2019-05-13T10:03:59.417Z,70.60
2019-05-13T10:06:27.428Z,70.50
2019-05-13T10:08:54.943Z,70.20
2019-05-13T10:11:22.887Z,70.30
2019-05-13T10:13:51.566Z,69.00
2019-05-13T10:16:21.748Z,69.00
2019-05-13T10:18:52.215Z,68.40
2019-05-13T10:21:21.643Z,67.20
2019-05-13T10:23:48.868Z,66.40
2019-05-13T10:26:16.865Z,65.80
2019-05-13T10:28:45.726Z,66.30
2019-05-13T10:31:13.293Z,66.90
2019-05-13T10:33:42.144Z,67.20
2019-05-13T10:36:12.067Z,67.10
2019-05-13T10:38:41.509Z,67.20
2019-05-13T10:41:11.775Z,67.30
2019-05-13T10:43:43.233Z,67.30
2019-05-13T10:48:41.718Z,66.90
2019-05-13T10:51:09.427Z,64.90
2019-05-13T10:53:37.162Z,64.40
2019-05-13T10:56:07.625Z,64.30
2019-05-13T10:58:35.137Z,64.20
2019-05-13T11:01:03.395Z,64.30
2019-05-13T11:03:32.823Z,64.60
2019-05-13T11:06:00.964Z,65.50
2019-05-13T11:08:29.069Z,65.30
2019-05-13T11:10:57.192Z,65.20
2019-05-13T11:13:25.374Z,65.70
2019-05-13T11:15:57.864Z,65.80
2019-05-13T11:18:24.419Z,65.70
2019-05-13T11:20:52.058Z,65.40
2019-05-13T11:23:22.945Z,65.50
2019-05-13T11:25:52.216Z,65.80
2019-05-13T11:28:19.110Z,65.90
2019-05-13T11:30:47.205Z,65.60
2019-05-13T11:33:15.856Z,65.50
2019-05-13T11:35:43.597Z,65.90
2019-05-13T11:38:12.465Z,65.60
2019-05-13T11:40:40.694Z,66.20
2019-05-13T11:43:08.331Z,65.70
2019-05-13T11:45:36.072Z,66.20
2019-05-13T11:48:04.031Z,65.60
2019-05-13T11:50:32.199Z,64.80
2019-05-13T11:53:03.510Z,64.40
2019-05-13T11:55:30.509Z,63.10
2019-05-13T11:57:58.544Z,61.60
2019-05-13T12:00:52.756Z,62.50
2019-05-13T12:03:18.575Z,63.70
2019-05-13T12:05:46.748Z,64.40
2019-05-13T12:08:14.894Z,64.60
2019-05-13T12:10:43.992Z,64.90
2019-05-13T12:13:12.670Z,65.10
2019-05-13T12:15:48.735Z,64.40
2019-05-13T12:18:12.802Z,64.30
2019-05-13T12:20:42.766Z,63.00
2019-05-13T12:23:12.843Z,62.20
2019-05-13T12:25:43.716Z,62.20
2019-05-13T12:28:11.411Z,60.30
2019-05-13T12:30:41.789Z,60.60
2019-05-13T12:33:12.962Z,61.40
2019-05-13T12:35:38.552Z,61.30
2019-05-13T12:38:06.971Z,61.70
2019-05-13T12:40:34.879Z,62.00
2019-05-13T12:43:02.758Z,62.40
2019-05-13T12:45:31.166Z,61.60
2019-05-13T12:48:02.932Z,61.10
2019-05-13T12:50:29.125Z,61.30
2019-05-13T12:52:57.106Z,61.80
2019-05-13T12:55:24.611Z,62.10
2019-05-13T12:57:52.787Z,62.00
2019-05-13T13:00:23.611Z,62.20
2019-05-13T13:02:52.144Z,61.70
2019-05-13T13:05:21.311Z,60.80
2019-05-13T13:08:13.764Z,60.60
2019-05-13T13:10:19.053Z,61.10
2019-05-13T13:12:47.005Z,60.60
2019-05-13T13:15:35.919Z,60.40
2019-05-13T13:17:45.063Z,59.70
2019-05-13T13:20:14.901Z,59.00
2019-05-13T13:22:42.769Z,57.50
2019-05-13T13:25:13.209Z,58.00
2019-05-13T13:28:04.051Z,58.30
2019-05-13T13:30:12.134Z,58.50
2019-05-13T13:32:43.992Z,57.80
2019-05-13T13:35:09.728Z,57.60
2019-05-13T13:37:37.758Z,57.30
2019-05-13T13:40:06.920Z,56.80
2019-05-13T13:42:34.858Z,56.20
2019-05-13T13:45:06.010Z,56.10
2019-05-13T13:47:33.876Z,56.50
2019-05-13T13:50:01.658Z,56.60
2019-05-13T13:52:33.585Z,56.90
2019-05-13T13:55:04.409Z,56.20
2019-05-13T13:57:32.519Z,55.20
2019-05-13T14:00:29.260Z,54.40
2019-05-13T14:02:36.553Z,54.60
2019-05-13T14:05:04.913Z,54.80
2019-05-13T14:07:04.309Z,67.30
2019-05-13T14:07:35.903Z,55.00
2019-05-13T14:10:06.481Z,55.20
2019-05-13T14:12:29.673Z,55.40
2019-05-13T14:14:57.757Z,55.30
2019-05-13T14:17:26.141Z,54.80
2019-05-13T14:19:53.820Z,54.70
2019-05-13T14:22:22.476Z,54.80
2019-05-13T14:24:51.882Z,54.80
2019-05-13T14:27:22.343Z,55.30
2019-05-13T14:29:52.484Z,54.70
2019-05-13T14:32:22.230Z,54.90
2019-05-13T14:34:49.591Z,54.40
2019-05-13T14:37:17.351Z,53.50
2019-05-13T14:39:45.196Z,51.10
2019-05-13T14:42:14.456Z,51.60
2019-05-13T14:44:42.190Z,51.40
2019-05-13T14:47:12.559Z,50.70
2019-05-13T14:49:42.329Z,51.60
2019-05-13T14:52:11.916Z,52.40
2019-05-13T14:54:41.854Z,51.20
2019-05-13T14:57:11.891Z,51.70
2019-05-13T14:59:41.465Z,50.80
2019-05-13T15:02:11.770Z,50.20
2019-05-13T15:04:41.602Z,50.90
2019-05-13T15:07:11.695Z,51.80
2019-05-13T15:09:39.192Z,51.90
2019-05-13T15:12:07.455Z,52.30
2019-05-13T15:14:35.308Z,50.10
2019-05-13T15:17:07.372Z,47.20
2019-05-13T15:19:32.739Z,48.10
2019-05-13T15:22:00.399Z,49.00
2019-05-13T15:24:28.676Z,50.00
2019-05-13T15:26:56.940Z,50.10
2019-05-13T15:29:25.936Z,48.90
2019-05-13T15:31:53.975Z,47.90
2019-05-13T15:34:23.166Z,46.00
2019-05-13T15:36:51.575Z,46.70
2019-05-13T15:39:19.644Z,47.60
2019-05-13T15:41:46.945Z,48.20
2019-05-13T15:44:15.335Z,48.50
2019-05-13T15:46:43.108Z,48.50
2019-05-13T15:49:12.386Z,48.30
2019-05-13T15:51:42.239Z,48.10
2019-05-13T15:54:14.667Z,47.70
2019-05-13T15:56:39.478Z,48.10
2019-05-13T15:59:08.939Z,47.50
2019-05-13T16:01:37.536Z,46.40
2019-05-13T16:04:05.687Z,46.20
2019-05-13T16:06:33.826Z,46.70
2019-05-13T16:09:05.165Z,46.90
2019-05-13T16:11:33.113Z,47.20
2019-05-13T16:14:02.754Z,46.40
2019-05-13T16:16:32.301Z,46.00
2019-05-13T16:19:00.850Z,46.40
2019-05-13T16:21:28.940Z,46.60
2019-05-13T16:23:56.580Z,45.80
2019-05-13T16:26:27.096Z,45.00
2019-05-13T16:28:53.891Z,45.50
2019-05-13T16:31:22.115Z,45.30
2019-05-13T16:33:52.163Z,45.80
2019-05-13T16:36:22.118Z,45.90
2019-05-13T16:38:52.564Z,46.60
2019-05-13T16:41:22.233Z,46.30
2019-05-13T16:43:50.678Z,46.70
2019-05-13T16:46:21.250Z,45.90
2019-05-13T16:48:48.861Z,46.00
2019-05-13T16:51:16.665Z,46.50
2019-05-13T16:53:47.506Z,46.80
2019-05-13T16:56:26.729Z,46.00
2019-05-13T16:58:45.721Z,45.40
2019-05-13T17:01:13.388Z,45.00
2019-05-13T17:03:41.712Z,45.30
2019-05-13T17:06:09.674Z,45.00
2019-05-13T17:08:37.526Z,44.80
2019-05-13T17:11:05.536Z,45.00
2019-05-13T17:13:33.414Z,45.80
2019-05-13T17:16:02.193Z,46.30
2019-05-13T17:18:32.134Z,47.10
2019-05-13T17:21:01.443Z,47.50
2019-05-13T17:23:29.407Z,48.30
2019-05-13T17:25:57.374Z,48.00
2019-05-13T17:28:25.064Z,47.60
2019-05-13T17:30:53.051Z,46.20
2019-05-13T17:33:23.015Z,46.60
2019-05-13T17:35:50.954Z,46.70
2019-05-13T17:38:18.566Z,47.00
2019-05-13T17:40:49.978Z,47.30
2019-05-13T17:43:17.069Z,47.50
2019-05-13T17:45:44.765Z,47.80
2019-05-13T17:48:25.767Z,47.70
2019-05-13T17:50:42.615Z,48.00
2019-05-13T17:53:11.331Z,48.40
2019-05-13T17:55:39.467Z,48.60
2019-05-13T17:58:07.482Z,48.10
2019-05-13T18:00:35.445Z,48.30
2019-05-13T18:03:03.171Z,48.40
2019-05-13T18:05:31.557Z,48.60
2019-05-13T18:08:01.654Z,48.80
2019-05-13T18:10:28.646Z,49.10
2019-05-13T18:12:56.691Z,49.20
2019-05-13T18:15:24.893Z,49.40
2019-05-13T18:17:53.389Z,49.20
2019-05-13T18:20:21.703Z,49.40
2019-05-13T18:22:52.173Z,49.60
2019-05-13T18:25:22.342Z,49.90
2019-05-13T18:27:52.142Z,50.30
2019-05-13T18:30:20.080Z,50.40
2019-05-13T18:32:48.510Z,50.60
2019-05-13T18:35:16.486Z,51.00
2019-05-13T18:37:44.553Z,51.10
2019-05-13T18:40:12.762Z,51.20
2019-05-13T18:42:43.960Z,51.10
2019-05-13T18:45:12.845Z,51.20
2019-05-13T18:47:40.971Z,51.30
2019-05-13T18:50:11.642Z,51.60
2019-05-13T18:52:41.965Z,51.60
2019-05-13T18:55:12.482Z,51.70
2019-05-13T18:57:43.445Z,51.70
2019-05-13T19:00:13.141Z,51.70
2019-05-13T19:02:41.490Z,51.90
2019-05-13T19:05:11.919Z,52.00
2019-05-13T19:07:43.589Z,52.00
2019-05-13T19:10:11.620Z,52.10
2019-05-13T19:12:41.831Z,52.20
2019-05-13T19:15:11.461Z,52.30
2019-05-13T19:17:41.509Z,52.50
2019-05-13T19:20:11.672Z,52.40
2019-05-13T19:22:42.202Z,52.50
2019-05-13T19:25:11.922Z,52.90
2019-05-13T19:27:41.439Z,53.00
2019-05-13T19:30:12.109Z,53.20
2019-05-13T19:32:43.386Z,53.30
2019-05-13T19:35:16.359Z,53.30
2019-05-13T19:37:51.907Z,53.20
2019-05-13T19:40:22.527Z,53.20
2019-05-13T19:42:52.289Z,53.30
2019-05-13T19:45:21.744Z,53.20
2019-05-13T19:47:51.938Z,53.20
2019-05-13T19:50:22.586Z,53.20
2019-05-13T19:52:51.840Z,53.10
2019-05-13T19:55:20.400Z,53.20
2019-05-13T19:57:48.738Z,53.20
2019-05-13T20:00:17.429Z,53.30
2019-05-13T20:02:44.977Z,53.40
2019-05-13T20:05:12.659Z,53.40
2019-05-13T20:07:41.942Z,53.60
2019-05-13T20:10:11.852Z,53.60
2019-05-13T20:12:42.086Z,53.70
2019-05-13T20:15:11.748Z,53.90
2019-05-13T20:17:41.685Z,54.00
2019-05-13T20:20:12.151Z,54.00
2019-05-13T20:22:42.147Z,53.90
2019-05-13T20:25:12.595Z,53.90
2019-05-13T20:27:42.092Z,54.10
2019-05-13T20:30:11.444Z,53.70
2019-05-13T20:32:39.309Z,53.80
2019-05-13T20:35:07.019Z,53.70
2019-05-13T20:37:34.926Z,53.70
2019-05-13T20:40:03.418Z,53.70
2019-05-13T20:42:31.259Z,53.70
2019-05-13T20:44:59.492Z,53.60
2019-05-13T20:47:27.059Z,53.60
2019-05-13T20:50:01.395Z,53.70
2019-05-13T20:52:24.568Z,53.80
2019-05-13T20:54:52.722Z,53.90
2019-05-13T20:57:22.252Z,53.60
2019-05-13T20:59:51.667Z,53.50
2019-05-13T21:02:22.189Z,53.30
2019-05-13T21:04:50.020Z,53.40
2019-05-13T21:07:17.508Z,53.20
2019-05-13T21:09:44.955Z,53.00
2019-05-13T21:12:12.310Z,53.10
2019-05-13T21:14:41.337Z,53.00
2019-05-13T21:17:09.266Z,52.80
2019-05-13T21:19:42.573Z,52.90
2019-05-13T21:22:11.751Z,52.80
2019-05-13T21:24:41.085Z,53.00
2019-05-13T21:27:08.308Z,53.00
2019-05-13T21:29:36.188Z,53.10
2019-05-13T21:32:03.709Z,53.40
2019-05-13T21:34:31.707Z,53.50
2019-05-13T21:37:02.102Z,53.60
2019-05-13T21:39:31.822Z,53.60
2019-05-13T21:41:58.881Z,53.50
2019-05-13T21:44:26.916Z,53.50
2019-05-13T21:46:55.007Z,53.60
2019-05-13T21:49:22.577Z,53.50
2019-05-13T21:51:52.155Z,53.40
2019-05-13T21:54:19.909Z,53.50
2019-05-13T21:56:47.291Z,53.60
2019-05-13T21:59:15.143Z,53.80
2019-05-13T22:01:43.008Z,53.60
2019-05-13T22:04:12.339Z,53.60
2019-05-13T22:06:40.169Z,53.80
2019-05-13T22:09:11.680Z,53.80
2019-05-13T22:11:41.794Z,54.30
2019-05-13T22:14:11.142Z,54.40
2019-05-13T22:16:38.578Z,54.70
2019-05-13T22:19:06.389Z,54.60
2019-05-13T22:21:34.152Z,54.60
2019-05-13T22:24:02.275Z,54.60
2019-05-13T22:26:31.195Z,54.70
2019-05-13T22:31:45.068Z,54.90
2019-05-13T22:34:12.468Z,55.40
2019-05-13T22:36:40.032Z,55.40
2019-05-13T22:39:07.649Z,55.70
2019-05-13T22:41:35.404Z,55.70
2019-05-13T22:44:03.417Z,55.90
2019-05-13T22:46:32.234Z,56.00
2019-05-13T22:49:01.156Z,56.20
2019-05-13T22:51:31.841Z,56.40
2019-05-13T22:53:58.875Z,56.60
2019-05-13T22:56:27.052Z,56.50
2019-05-13T22:58:54.577Z,56.40
2019-05-13T23:01:22.537Z,56.80
2019-05-13T23:03:51.484Z,56.70
2019-05-13T23:06:21.509Z,56.90
2019-05-13T23:08:50.147Z,57.10
2019-05-13T23:11:36.271Z,57.10
2019-05-13T23:14:09.653Z,57.30
2019-05-13T23:16:34.117Z,57.90
2019-05-13T23:19:01.757Z,57.50
2019-05-13T23:21:31.288Z,57.60
2019-05-13T23:24:02.229Z,57.60
2019-05-13T23:26:31.574Z,57.70
2019-05-13T23:29:01.294Z,57.90
2019-05-13T23:31:28.561Z,58.00
2019-05-13T23:33:55.919Z,58.20
2019-05-13T23:36:23.915Z,58.20
2019-05-13T23:38:52.248Z,58.30
2019-05-13T23:41:21.798Z,58.40
2019-05-13T23:43:49.994Z,58.60
2019-05-13T23:46:17.948Z,58.80
2019-05-13T23:48:45.550Z,58.80
2019-05-13T23:51:13.086Z,58.90
2019-05-13T23:53:41.695Z,58.90
2019-05-13T23:56:11.211Z,59.00
2019-05-13T23:58:41.216Z,59.10
